createdAt,value
2018-05-29T00:00:27.432Z,14.63
2018-05-29T00:02:53.636Z,17.27
2018-05-29T00:05:19.825Z,17.27
2018-05-29T00:07:46.112Z,18.50
2018-05-29T00:10:12.303Z,17.57
2018-05-29T00:12:38.514Z,18.13
2018-05-29T00:15:04.699Z,16.43
2018-05-29T00:17:30.883Z,19.17
2018-05-29T00:19:57.820Z,19.20
2018-05-29T00:22:24.768Z,18.77
2018-05-29T00:24:50.957Z,19.23
2018-05-29T00:27:17.151Z,20.07
2018-05-29T00:29:43.348Z,18.97
2018-05-29T00:32:10.279Z,18.10
2018-05-29T00:34:37.235Z,21.80
2018-05-29T00:37:03.436Z,19.90
2018-05-29T00:39:29.611Z,19.20
2018-05-29T00:41:56.564Z,19.77
2018-05-29T00:44:22.757Z,20.63
2018-05-29T00:46:48.944Z,19.97
2018-05-29T00:49:15.131Z,21.40
2018-05-29T00:51:42.073Z,20.90
2018-05-29T00:54:09.002Z,21.43
2018-05-29T00:56:35.923Z,20.67
2018-05-29T00:59:02.132Z,20.80
2018-05-29T01:01:28.313Z,22.33
2018-05-29T01:03:54.552Z,20.33
2018-05-29T01:06:21.473Z,21.13
2018-05-29T01:08:47.663Z,25.33
2018-05-29T01:11:13.851Z,23.90
2018-05-29T01:13:40.423Z,22.63
2018-05-29T01:16:06.619Z,21.20
2018-05-29T01:18:32.814Z,20.97
2018-05-29T01:20:59.007Z,24.77
2018-05-29T01:23:25.191Z,25.77
2018-05-29T01:25:52.182Z,23.83
2018-05-29T01:28:18.351Z,21.50
2018-05-29T01:30:44.613Z,25.23
2018-05-29T01:33:10.794Z,23.17
2018-05-29T01:35:37.033Z,24.17
2018-05-29T01:38:03.973Z,23.20
2018-05-29T01:40:30.911Z,24.53
2018-05-29T01:42:57.116Z,23.67
2018-05-29T01:45:23.293Z,24.97
2018-05-29T01:47:50.196Z,24.90
2018-05-29T01:50:16.408Z,25.87
2018-05-29T01:52:42.607Z,25.00
2018-05-29T01:55:08.802Z,24.67
2018-05-29T01:57:35.724Z,26.30
2018-05-29T02:00:01.910Z,27.17
2018-05-29T02:02:28.111Z,24.37
2018-05-29T02:04:55.055Z,24.80
2018-05-29T02:07:21.991Z,24.93
2018-05-29T02:09:48.173Z,25.93
2018-05-29T02:12:14.367Z,27.70
2018-05-29T02:14:40.582Z,27.03
2018-05-29T02:17:07.536Z,26.63
2018-05-29T02:19:34.468Z,25.03
2018-05-29T02:22:00.664Z,25.80
2018-05-29T02:24:26.853Z,25.70
2018-05-29T02:26:53.036Z,26.27
2018-05-29T02:29:20.004Z,27.27
2018-05-29T02:31:46.219Z,26.83
2018-05-29T02:34:12.407Z,27.20
2018-05-29T02:36:39.401Z,26.77
2018-05-29T02:39:06.347Z,28.60
2018-05-29T02:41:33.288Z,26.67
2018-05-29T02:44:00.226Z,27.13
2018-05-29T02:46:26.416Z,26.07
2018-05-29T02:48:52.603Z,27.00
2018-05-29T02:51:18.803Z,27.43
2018-05-29T02:53:44.987Z,27.40
2018-05-29T02:56:11.187Z,26.87
2018-05-29T02:58:37.372Z,27.07
2018-05-29T03:01:03.563Z,28.90
2018-05-29T03:03:29.727Z,29.00
2018-05-29T03:05:55.929Z,28.83
2018-05-29T03:08:22.124Z,26.90
2018-05-29T03:10:48.310Z,27.70
2018-05-29T03:13:14.503Z,26.67
2018-05-29T03:15:41.502Z,29.03
2018-05-29T03:18:08.429Z,26.30
2018-05-29T03:20:34.621Z,26.63
2018-05-29T03:23:00.828Z,27.57
2018-05-29T03:25:27.037Z,29.00
2018-05-29T03:27:53.236Z,29.47
2018-05-29T03:30:20.184Z,28.57
2018-05-29T03:32:46.365Z,29.27
2018-05-29T03:35:12.557Z,26.20
2018-05-29T03:37:39.536Z,29.23
2018-05-29T03:40:05.735Z,29.53
2018-05-29T03:42:32.660Z,29.90
2018-05-29T03:44:58.864Z,29.87
2018-05-29T03:47:25.064Z,29.77
2018-05-29T03:49:51.255Z,29.40
2018-05-29T03:52:17.481Z,31.40
2018-05-29T03:54:44.439Z,29.90
2018-05-29T03:57:10.629Z,33.53
2018-05-29T03:59:36.847Z,29.70
2018-05-29T04:02:03.028Z,29.77
2018-05-29T04:04:29.213Z,31.77
2018-05-29T04:06:55.652Z,29.57
2018-05-29T04:09:21.865Z,30.57
2018-05-29T04:11:48.049Z,29.73
2018-05-29T04:14:14.259Z,29.37
2018-05-29T04:16:40.446Z,28.47
2018-05-29T04:19:06.642Z,30.00
2018-05-29T04:21:32.842Z,28.73
2018-05-29T04:23:59.031Z,29.87
2018-05-29T04:26:25.213Z,30.10
2018-05-29T04:28:51.404Z,30.73
2018-05-29T04:31:17.596Z,28.37
2018-05-29T04:33:44.516Z,28.27
2018-05-29T04:36:10.708Z,30.10
2018-05-29T04:38:36.922Z,28.17
2018-05-29T04:41:03.108Z,28.10
2018-05-29T04:43:30.305Z,28.50
2018-05-29T04:45:56.494Z,30.73
2018-05-29T04:48:23.418Z,29.80
2018-05-29T04:50:49.599Z,31.53
2018-05-29T04:53:15.786Z,29.03
2018-05-29T04:55:42.711Z,28.57
2018-05-29T04:58:08.920Z,28.53
2018-05-29T05:00:35.151Z,31.20
2018-05-29T05:03:01.343Z,31.30
2018-05-29T05:05:27.586Z,29.20
2018-05-29T05:07:53.792Z,30.07
2018-05-29T05:10:19.981Z,30.30
2018-05-29T05:12:46.287Z,29.73
2018-05-29T05:15:12.486Z,28.60
2018-05-29T05:17:38.664Z,29.57
2018-05-29T05:20:04.844Z,30.17
2018-05-29T05:22:31.021Z,28.57
2018-05-29T05:24:58.017Z,28.53
2018-05-29T05:27:24.212Z,30.03
2018-05-29T05:29:51.145Z,29.77
2018-05-29T05:32:17.312Z,30.20
2018-05-29T05:34:43.505Z,28.73
2018-05-29T05:37:10.431Z,31.30
2018-05-29T05:39:36.653Z,31.57
2018-05-29T05:42:02.899Z,29.87
2018-05-29T05:44:36.476Z,28.43
2018-05-29T05:47:02.735Z,30.20
2018-05-29T05:49:29.668Z,28.50
2018-05-29T05:51:56.596Z,27.97
2018-05-29T05:54:22.801Z,28.90
2018-05-29T05:56:48.989Z,29.63
2018-05-29T05:59:15.176Z,28.73
2018-05-29T06:01:41.371Z,28.13
2018-05-29T06:04:07.565Z,27.87
2018-05-29T06:06:34.489Z,27.00
2018-05-29T06:09:01.428Z,25.33
2018-05-29T06:11:27.619Z,25.83
2018-05-29T06:13:53.798Z,25.42
2018-05-29T06:16:20.011Z,24.42
2018-05-29T06:18:46.955Z,26.08
2018-05-29T06:21:13.142Z,24.98
2018-05-29T06:23:39.342Z,24.12
2018-05-29T06:26:05.547Z,25.90
2018-05-29T06:28:32.483Z,24.15
2018-05-29T06:30:58.674Z,24.73
2018-05-29T06:33:24.843Z,25.37
2018-05-29T06:35:51.033Z,22.67
2018-05-29T06:38:17.290Z,22.20
2018-05-29T06:40:43.472Z,23.20
2018-05-29T06:43:09.690Z,22.85
2018-05-29T06:45:35.871Z,22.30
2018-05-29T06:48:02.053Z,23.45
2018-05-29T06:50:28.251Z,21.50
2018-05-29T06:52:54.431Z,22.65
2018-05-29T06:55:20.616Z,21.62
2018-05-29T06:57:46.813Z,21.08
2018-05-29T07:00:13.002Z,20.42
2018-05-29T07:02:39.183Z,20.62
2018-05-29T07:05:06.135Z,20.90
2018-05-29T07:07:32.464Z,20.48
2018-05-29T07:09:59.371Z,19.48
2018-05-29T07:12:26.479Z,21.48
2018-05-29T07:14:52.660Z,20.75
2018-05-29T07:17:19.594Z,22.02
2018-05-29T07:19:45.784Z,21.62
2018-05-29T07:22:11.983Z,19.98
2018-05-29T07:24:38.217Z,20.48
2018-05-29T07:27:04.376Z,20.58
2018-05-29T07:29:30.589Z,20.25
2018-05-29T07:31:56.759Z,21.45
2018-05-29T07:34:22.950Z,20.52
2018-05-29T07:36:49.152Z,23.42
2018-05-29T07:39:15.355Z,23.48
2018-05-29T07:41:42.300Z,22.27
2018-05-29T07:44:09.235Z,22.75
2018-05-29T07:46:36.166Z,22.83
2018-05-29T07:49:02.397Z,21.87
2018-05-29T07:51:28.587Z,21.25
2018-05-29T07:53:54.772Z,22.20
2018-05-29T07:56:21.703Z,22.58
2018-05-29T07:58:47.977Z,23.00
2018-05-29T08:01:14.105Z,22.48
2018-05-29T08:03:40.286Z,24.67
2018-05-29T08:06:06.490Z,26.02
2018-05-29T08:08:32.677Z,23.52
2018-05-29T08:10:58.917Z,22.35
2018-05-29T08:13:25.088Z,23.12
2018-05-29T08:15:51.280Z,23.80
2018-05-29T08:18:17.487Z,23.73
2018-05-29T08:20:43.687Z,24.25
2018-05-29T08:23:09.868Z,22.87
2018-05-29T08:25:36.303Z,24.00
2018-05-29T08:28:02.492Z,22.83
2018-05-29T08:30:29.408Z,22.65
2018-05-29T08:32:55.588Z,22.62
2018-05-29T08:35:21.771Z,22.92
2018-05-29T08:37:47.943Z,21.55
2018-05-29T08:40:14.143Z,22.50
2018-05-29T08:42:40.328Z,23.30
2018-05-29T08:45:06.535Z,21.35
2018-05-29T08:47:32.744Z,21.08
2018-05-29T08:49:58.908Z,21.90
2018-05-29T08:52:25.115Z,20.20
2018-05-29T08:54:51.300Z,19.67
2018-05-29T08:57:18.206Z,20.30
2018-05-29T08:59:44.593Z,18.95
2018-05-29T09:02:11.026Z,19.65
2018-05-29T09:04:37.203Z,19.75
2018-05-29T09:07:03.396Z,20.80
2018-05-29T09:09:29.592Z,20.85
2018-05-29T09:11:55.796Z,19.77
2018-05-29T09:14:21.960Z,21.67
2018-05-29T09:16:48.158Z,21.10
2018-05-29T09:19:15.068Z,22.73
2018-05-29T09:21:41.258Z,25.37
2018-05-29T09:24:07.443Z,24.65
2018-05-29T09:26:33.627Z,21.60
2018-05-29T09:28:59.823Z,20.70
2018-05-29T09:31:26.731Z,19.50
2018-05-29T09:33:52.899Z,22.20
2018-05-29T09:36:19.103Z,20.42
2018-05-29T09:38:46.025Z,22.62
2018-05-29T09:41:12.212Z,19.83
2018-05-29T09:43:38.389Z,18.17
2018-05-29T09:46:04.571Z,19.23
2018-05-29T09:48:31.463Z,18.75
2018-05-29T09:50:58.388Z,18.30
2018-05-29T09:53:24.571Z,16.73
2018-05-29T09:55:50.744Z,17.00
2018-05-29T09:58:16.924Z,19.25
2018-05-29T10:00:43.127Z,17.08
2018-05-29T10:03:10.319Z,17.67
2018-05-29T10:05:36.494Z,15.13
2018-05-29T10:08:02.676Z,14.27
2018-05-29T10:10:28.859Z,17.08
2018-05-29T10:12:55.804Z,14.85
2018-05-29T10:15:21.959Z,13.50
2018-05-29T10:17:48.150Z,14.00
2018-05-29T10:20:15.069Z,14.25
2018-05-29T10:22:41.243Z,13.88
2018-05-29T10:25:07.443Z,15.18
2018-05-29T10:27:34.379Z,14.80
2018-05-29T10:30:00.555Z,14.20
2018-05-29T10:32:26.728Z,13.32
2018-05-29T10:34:52.895Z,14.32
2018-05-29T10:37:19.068Z,13.88
2018-05-29T10:39:45.284Z,14.23
2018-05-29T10:42:11.460Z,15.52
2018-05-29T10:44:37.626Z,16.50
2018-05-29T10:47:03.822Z,15.13
2018-05-29T10:49:30.017Z,14.02
2018-05-29T10:51:56.192Z,14.52
2018-05-29T10:54:22.403Z,15.75
2018-05-29T10:56:49.325Z,14.85
2018-05-29T10:59:15.541Z,13.23
2018-05-29T11:01:41.696Z,13.27
2018-05-29T11:04:07.877Z,12.23
2018-05-29T11:06:34.048Z,12.23
2018-05-29T11:09:00.976Z,11.48
2018-05-29T11:11:27.166Z,11.18
2018-05-29T11:13:53.347Z,12.93
2018-05-29T11:16:20.272Z,12.63
2018-05-29T11:18:47.211Z,12.30
2018-05-29T11:21:14.863Z,12.52
2018-05-29T11:23:41.046Z,12.13
2018-05-29T11:26:07.220Z,11.68
2018-05-29T11:28:33.420Z,11.50
2018-05-29T11:30:59.599Z,11.98
2018-05-29T11:33:26.520Z,12.00
2018-05-29T11:35:52.703Z,11.05
2018-05-29T11:38:18.895Z,11.93
2018-05-29T11:40:45.085Z,11.05
2018-05-29T11:43:11.283Z,11.60
2018-05-29T11:45:37.475Z,11.35
2018-05-29T11:48:03.647Z,12.15
2018-05-29T11:50:29.839Z,12.30
2018-05-29T11:52:56.032Z,11.95
2018-05-29T11:55:22.215Z,11.55
2018-05-29T11:57:48.395Z,13.00
2018-05-29T12:00:15.021Z,11.00
2018-05-29T12:02:41.379Z,10.93
2018-05-29T12:05:07.547Z,11.70
2018-05-29T12:07:33.794Z,11.32
2018-05-29T12:09:59.920Z,10.77
2018-05-29T12:12:26.057Z,10.48
2018-05-29T12:14:52.241Z,10.85
2018-05-29T12:17:18.468Z,10.80
2018-05-29T12:19:45.465Z,10.90
2018-05-29T12:22:11.667Z,10.80
2018-05-29T12:24:37.899Z,10.25
2018-05-29T12:27:04.084Z,9.85
2018-05-29T12:29:30.295Z,10.27
2018-05-29T12:31:57.203Z,9.85
2018-05-29T12:34:23.402Z,9.30
2018-05-29T12:36:50.309Z,9.93
2018-05-29T12:39:17.219Z,9.60
2018-05-29T12:41:43.392Z,9.45
2018-05-29T12:44:09.565Z,9.27
2018-05-29T12:46:35.763Z,9.48
2018-05-29T12:49:02.737Z,9.35
2018-05-29T12:51:28.895Z,10.02
2018-05-29T12:53:55.048Z,8.98
2018-05-29T12:56:21.959Z,9.07
2018-05-29T12:58:48.163Z,8.68
2018-05-29T13:01:14.327Z,9.25
2018-05-29T13:03:41.255Z,9.15
2018-05-29T13:06:07.468Z,9.80
2018-05-29T13:08:33.656Z,10.18
2018-05-29T13:10:59.789Z,9.55
2018-05-29T13:13:26.679Z,8.70
2018-05-29T13:15:52.819Z,9.13
2018-05-29T13:18:19.009Z,9.65
2018-05-29T13:20:45.207Z,9.57
2018-05-29T13:23:11.382Z,9.30
2018-05-29T13:25:37.595Z,9.07
2018-05-29T13:28:03.795Z,9.23
2018-05-29T13:30:29.963Z,9.88
2018-05-29T13:32:56.167Z,8.85
2018-05-29T13:35:22.334Z,8.88
2018-05-29T13:37:49.239Z,8.80
2018-05-29T13:40:15.366Z,8.68
2018-05-29T13:42:41.512Z,9.35
2018-05-29T13:45:07.647Z,9.50
2018-05-29T13:47:33.775Z,8.60
2018-05-29T13:49:59.927Z,8.73
2018-05-29T13:52:26.109Z,9.10
2018-05-29T13:54:52.310Z,9.40
2018-05-29T13:57:18.494Z,8.82
2018-05-29T13:59:44.632Z,9.82
2018-05-29T14:02:10.767Z,9.27
2018-05-29T14:04:36.907Z,9.63
2018-05-29T14:07:03.080Z,9.35
2018-05-29T14:09:29.236Z,8.57
2018-05-29T14:11:55.395Z,9.30
2018-05-29T14:14:21.588Z,9.07
2018-05-29T14:16:47.819Z,9.35
2018-05-29T14:19:13.999Z,9.30
2018-05-29T14:21:40.143Z,10.10
2018-05-29T14:24:06.307Z,8.35
2018-05-29T14:26:32.440Z,9.77
2018-05-29T14:28:59.351Z,9.07
2018-05-29T14:31:25.508Z,9.55
2018-05-29T14:33:52.391Z,9.07
2018-05-29T14:36:18.535Z,9.27
2018-05-29T14:38:44.671Z,9.05
2018-05-29T14:41:10.823Z,8.93
2018-05-29T14:43:36.976Z,8.98
2018-05-29T14:46:03.113Z,10.13
2018-05-29T14:48:29.283Z,9.93
2018-05-29T14:50:55.442Z,10.65
2018-05-29T14:53:21.582Z,10.20
2018-05-29T14:55:47.735Z,10.57
2018-05-29T14:58:13.873Z,12.43
2018-05-29T15:00:40.024Z,13.32
2018-05-29T15:03:06.218Z,13.80
2018-05-29T15:05:32.384Z,13.10
2018-05-29T15:07:58.517Z,13.60
2018-05-29T15:10:25.407Z,13.77
2018-05-29T15:12:51.559Z,15.02
2018-05-29T15:15:17.699Z,12.85
2018-05-29T15:17:45.364Z,13.23
2018-05-29T15:20:12.979Z,15.93
2018-05-29T15:22:39.175Z,21.20
2018-05-29T15:25:06.072Z,21.27
2018-05-29T15:27:33.001Z,21.05
2018-05-29T15:29:59.178Z,22.73
2018-05-29T15:32:26.099Z,25.70
2018-05-29T15:34:52.294Z,26.50
2018-05-29T15:37:18.442Z,27.13
2018-05-29T15:39:44.591Z,30.00
2018-05-29T15:42:10.775Z,31.95
2018-05-29T15:44:36.907Z,31.98
2018-05-29T15:47:03.076Z,32.00
2018-05-29T15:49:29.243Z,29.42
2018-05-29T15:51:55.391Z,31.15
2018-05-29T15:54:21.537Z,31.58
2018-05-29T15:56:47.704Z,33.17
2018-05-29T15:59:13.852Z,33.30
2018-05-29T16:01:39.983Z,35.33
2018-05-29T16:04:06.152Z,35.20
2018-05-29T16:06:32.288Z,33.85
2018-05-29T16:08:59.180Z,34.92
2018-05-29T16:11:25.362Z,32.75
2018-05-29T16:13:52.242Z,37.45
2018-05-29T16:16:18.375Z,34.63
2018-05-29T16:18:44.522Z,34.53
2018-05-29T16:21:10.676Z,32.67
2018-05-29T16:23:37.570Z,34.95
2018-05-29T16:26:03.740Z,33.50
2018-05-29T16:28:29.905Z,30.90
2018-05-29T16:30:56.060Z,29.08
2018-05-29T16:33:22.440Z,29.80
2018-05-29T16:35:48.655Z,31.00
2018-05-29T16:38:14.788Z,33.30
2018-05-29T16:40:41.960Z,23.60
2018-05-29T16:43:08.100Z,19.73
2018-05-29T16:45:34.251Z,13.07
2018-05-29T16:48:00.408Z,7.65
2018-05-29T16:50:26.536Z,6.20
2018-05-29T16:52:53.476Z,5.70
2018-05-29T16:55:19.616Z,5.40
2018-05-29T16:57:46.501Z,5.00
2018-05-29T17:00:12.646Z,4.70
2018-05-29T17:02:38.796Z,4.37
2018-05-29T17:05:04.947Z,5.10
2018-05-29T17:07:31.086Z,4.63
2018-05-29T17:09:57.289Z,4.67
2018-05-29T17:12:24.168Z,5.73
2018-05-29T17:14:50.319Z,5.13
2018-05-29T17:17:16.488Z,5.87
2018-05-29T17:19:43.376Z,4.90
2018-05-29T17:22:09.530Z,5.87
2018-05-29T17:24:35.688Z,6.90
2018-05-29T17:27:02.600Z,7.33
2018-05-29T17:29:28.740Z,5.67
2018-05-29T17:31:55.249Z,7.30
2018-05-29T17:34:21.370Z,6.70
2018-05-29T17:36:47.527Z,7.70
2018-05-29T17:39:13.699Z,8.53
2018-05-29T17:41:39.856Z,10.17
2018-05-29T17:44:06.061Z,9.70
2018-05-29T17:46:32.234Z,6.87
2018-05-29T17:48:59.107Z,6.80
2018-05-29T17:51:25.236Z,6.03
2018-05-29T17:53:51.416Z,5.23
2018-05-29T17:56:17.602Z,5.47
2018-05-29T17:58:43.731Z,5.33
2018-05-29T18:01:09.880Z,4.70
2018-05-29T18:03:36.040Z,4.53
2018-05-29T18:06:02.936Z,4.30
2018-05-29T18:08:29.096Z,4.37
2018-05-29T18:10:56.038Z,4.40
2018-05-29T18:13:22.256Z,4.47
2018-05-29T18:15:48.369Z,4.53
2018-05-29T18:18:14.520Z,4.40
2018-05-29T18:20:40.648Z,5.17
2018-05-29T18:23:06.805Z,4.87
2018-05-29T18:25:32.954Z,5.27
2018-05-29T18:27:59.114Z,5.20
2018-05-29T18:30:25.276Z,5.03
2018-05-29T18:32:51.441Z,5.87
2018-05-29T18:35:17.585Z,4.87
2018-05-29T18:37:43.956Z,5.60
2018-05-29T18:40:10.836Z,4.87
2018-05-29T18:42:36.975Z,5.23
2018-05-29T18:45:03.164Z,5.27
2018-05-29T18:47:29.291Z,5.50
2018-05-29T18:49:55.430Z,4.70
2018-05-29T18:52:21.591Z,5.73
2018-05-29T18:54:47.717Z,5.60
2018-05-29T18:57:13.877Z,6.83
2018-05-29T18:59:40.761Z,6.93
2018-05-29T19:02:06.955Z,7.40
2018-05-29T19:04:33.155Z,7.80
2018-05-29T19:06:59.300Z,8.70
2018-05-29T19:09:26.199Z,11.03
2018-05-29T19:11:52.353Z,12.13
2018-05-29T19:14:18.509Z,12.07
2018-05-29T19:16:44.683Z,12.37
2018-05-29T19:19:10.827Z,12.70
2018-05-29T19:21:36.980Z,13.10
2018-05-29T19:24:03.880Z,13.23
2018-05-29T19:26:30.036Z,12.53
2018-05-29T19:28:56.963Z,11.80
2018-05-29T19:31:23.128Z,13.20
2018-05-29T19:33:49.355Z,11.17
2018-05-29T19:36:16.239Z,10.80
2018-05-29T19:38:42.536Z,10.90
2018-05-29T19:41:08.691Z,12.20
2018-05-29T19:43:34.844Z,11.53
2018-05-29T19:46:01.201Z,12.07
2018-05-29T19:48:28.095Z,11.97
2018-05-29T19:50:54.303Z,11.50
2018-05-29T19:53:20.460Z,11.77
2018-05-29T19:55:46.617Z,11.00
2018-05-29T19:58:13.496Z,10.90
2018-05-29T20:00:39.681Z,10.43
2018-05-29T20:03:05.869Z,10.03
2018-05-29T20:05:32.039Z,8.93
2018-05-29T20:07:58.196Z,9.07
2018-05-29T20:10:24.378Z,8.97
2018-05-29T20:12:50.550Z,9.33
2018-05-29T20:15:16.688Z,8.67
2018-05-29T20:17:42.816Z,8.80
2018-05-29T20:20:09.001Z,8.67
2018-05-29T20:22:35.892Z,8.03
2018-05-29T20:25:02.043Z,7.70
2018-05-29T20:27:28.263Z,8.80
2018-05-29T20:29:54.404Z,7.60
2018-05-29T20:32:20.550Z,8.10
2018-05-29T20:34:47.447Z,8.10
2018-05-29T20:37:13.597Z,9.03
2018-05-29T20:39:39.740Z,7.10
2018-05-29T20:42:05.936Z,8.10
2018-05-29T20:44:32.155Z,8.10
2018-05-29T20:46:58.343Z,8.57
2018-05-29T20:49:25.232Z,8.53
2018-05-29T20:51:51.382Z,7.77
2018-05-29T20:54:17.523Z,7.93
2018-05-29T20:56:44.419Z,8.23
2018-05-29T20:59:10.592Z,9.13
2018-05-29T21:01:36.764Z,8.77
2018-05-29T21:04:02.919Z,8.63
2018-05-29T21:06:29.067Z,9.30
2018-05-29T21:08:55.196Z,9.60
2018-05-29T21:11:21.339Z,9.40
2018-05-29T21:13:47.513Z,10.47
2018-05-29T21:16:13.668Z,9.40
2018-05-29T21:18:39.812Z,10.43
2018-05-29T21:21:06.785Z,11.53
2018-05-29T21:23:32.939Z,10.53
2018-05-29T21:25:59.103Z,11.27
2018-05-29T21:28:26.003Z,10.77
2018-05-29T21:30:52.141Z,10.20
2018-05-29T21:33:18.288Z,10.97
2018-05-29T21:35:44.631Z,11.60
2018-05-29T21:38:10.860Z,12.23
2018-05-29T21:40:37.012Z,10.03
2018-05-29T21:43:03.180Z,10.47
2018-05-29T21:45:29.323Z,10.43
2018-05-29T21:47:55.484Z,9.93
2018-05-29T21:50:21.873Z,9.90
2018-05-29T21:52:48.054Z,9.67
2018-05-29T21:55:14.941Z,8.97
2018-05-29T21:57:41.087Z,10.27
2018-05-29T22:00:07.248Z,9.77
2018-05-29T22:02:33.387Z,10.00
2018-05-29T22:05:00.282Z,10.67
2018-05-29T22:07:26.428Z,9.80
2018-05-29T22:09:52.658Z,10.43
2018-05-29T22:12:18.795Z,10.40
2018-05-29T22:14:46.452Z,10.57
2018-05-29T22:17:12.593Z,10.93
2018-05-29T22:19:39.645Z,10.83
2018-05-29T22:22:06.539Z,10.80
2018-05-29T22:24:32.691Z,10.53
2018-05-29T22:26:58.856Z,9.93
2018-05-29T22:29:25.035Z,10.33
2018-05-29T22:31:51.160Z,10.67
2018-05-29T22:34:17.309Z,10.43
2018-05-29T22:36:44.216Z,10.10
2018-05-29T22:39:10.356Z,10.83
2018-05-29T22:41:37.280Z,10.73
2018-05-29T22:44:03.416Z,10.80
2018-05-29T22:46:29.572Z,10.93
2018-05-29T22:48:55.723Z,11.43
2018-05-29T22:51:22.588Z,11.27
2018-05-29T22:53:48.731Z,11.10
2018-05-29T22:56:14.887Z,8.97
2018-05-29T22:58:41.031Z,11.03
2018-05-29T23:01:07.923Z,11.17
2018-05-29T23:03:34.104Z,10.63
2018-05-29T23:06:00.303Z,11.43
2018-05-29T23:08:27.216Z,11.20
2018-05-29T23:10:53.417Z,11.80
2018-05-29T23:13:19.595Z,10.27
2018-05-29T23:15:46.563Z,11.40
2018-05-29T23:18:12.743Z,11.40
2018-05-29T23:20:38.915Z,12.17
2018-05-29T23:23:05.115Z,11.67
2018-05-29T23:25:31.303Z,12.13
2018-05-29T23:27:57.479Z,13.53
2018-05-29T23:30:24.407Z,12.20
2018-05-29T23:32:51.332Z,12.67
2018-05-29T23:35:17.495Z,11.90
2018-05-29T23:37:44.453Z,12.83
2018-05-29T23:40:10.643Z,13.23
2018-05-29T23:42:37.039Z,13.03
2018-05-29T23:45:03.252Z,13.40
2018-05-29T23:47:36.496Z,12.63
2018-05-29T23:50:02.673Z,12.90
2018-05-29T23:52:28.831Z,12.60
2018-05-29T23:54:55.029Z,13.30
2018-05-29T23:57:21.211Z,13.93
2018-05-29T23:59:48.149Z,14.17
